TKJ2PC LCEN-LTFJ
Flight info
| Callsign | TKJ2PC |
|---|---|
| Flight time | N/A |
| Altitude | 36000 |
| Route | GIRNE DCT DOREN DCT KETEK UT38 VAPEK DCT EKMIM UL610 ETAMP |
| Aircraft | A320/M-SDE3FGHIRWY/LB1 |
Departure
| Time | 2026-04-15 16:03 |
|---|---|
| Airport | Ercan International Airport (LCEN) |
Arrival
| Time | N/A |
|---|---|
| Airport | Istanbul Sabiha Gökçen International Airport (LTFJ) |
| Time | Latitude | Longitude | Altitude | Speed | Heading |
|---|---|---|---|---|---|
| 2026-04-15 15:53 | 35.14911 | 33.50517 | 393 ft | 0 kts | 200° |
| 2026-04-15 15:57 | 35.14919 | 33.50520 | 393 ft | 4 kts | 205° |
| 2026-04-15 15:57 | 35.14942 | 33.50532 | 393 ft | 4 kts | 211° |
| 2026-04-15 15:57 | 35.14955 | 33.50554 | 393 ft | 4 kts | 272° |
| 2026-04-15 15:58 | 35.14950 | 33.50582 | 393 ft | 1 kts | 292° |
| 2026-04-15 15:58 | 35.14950 | 33.50583 | 393 ft | 0 kts | 292° |
| 2026-04-15 16:00 | 35.14972 | 33.50517 | 393 ft | 17 kts | 292° |
| 2026-04-15 16:00 | 35.15021 | 33.50370 | 393 ft | 20 kts | 292° |
| 2026-04-15 16:01 | 35.15075 | 33.50208 | 393 ft | 22 kts | 292° |
| 2026-04-15 16:01 | 35.15136 | 33.50025 | 393 ft | 24 kts | 292° |
| 2026-04-15 16:01 | 35.15200 | 33.49832 | 393 ft | 25 kts | 292° |
| 2026-04-15 16:01 | 35.15265 | 33.49697 | 393 ft | 16 kts | 340° |
| 2026-04-15 16:02 | 35.15375 | 33.49737 | 393 ft | 18 kts | 24° |
| 2026-04-15 16:02 | 35.15422 | 33.49830 | 393 ft | 15 kts | 111° |
| 2026-04-15 16:02 | 35.15418 | 33.49840 | 392 ft | 0 kts | 112° |
| 2026-04-15 16:02 | 35.15390 | 33.49926 | 391 ft | 46 kts | 111° |
| 2026-04-15 16:03 | 35.15157 | 33.50642 | 393 ft | 130 kts | 112° |
| 2026-04-15 16:03 | 35.14749 | 33.51887 | 590 ft | 176 kts | 111° |
| 2026-04-15 16:03 | 35.14273 | 33.53367 | 1346 ft | 197 kts | 110° |
| 2026-04-15 16:03 | 35.13982 | 33.55049 | 2023 ft | 208 kts | 86° |
| 2026-04-15 16:04 | 35.14458 | 33.56739 | 2605 ft | 216 kts | 63° |
| 2026-04-15 16:04 | 35.15181 | 33.58352 | 3376 ft | 217 kts | 61° |
| 2026-04-15 16:04 | 35.15929 | 33.59967 | 4088 ft | 220 kts | 59° |
| 2026-04-15 16:04 | 35.16696 | 33.61607 | 4718 ft | 229 kts | 58° |
| 2026-04-15 16:05 | 35.17515 | 33.63336 | 5261 ft | 240 kts | 55° |
| 2026-04-15 16:05 | 35.18690 | 33.64782 | 5930 ft | 245 kts | 29° |
| 2026-04-15 16:05 | 35.20368 | 33.65428 | 6352 ft | 264 kts | 359° |
| 2026-04-15 16:05 | 35.22169 | 33.64923 | 7008 ft | 271 kts | 336° |
| 2026-04-15 16:06 | 35.23919 | 33.64021 | 7848 ft | 275 kts | 335° |
| 2026-04-15 16:06 | 35.25673 | 33.63117 | 8677 ft | 278 kts | 335° |
| 2026-04-15 16:06 | 35.27468 | 33.62193 | 9528 ft | 281 kts | 335° |
| 2026-04-15 16:06 | 35.29286 | 33.61257 | 10268 ft | 289 kts | 334° |
| 2026-04-15 16:07 | 35.31222 | 33.60262 | 10518 ft | 313 kts | 335° |
| 2026-04-15 16:07 | 35.33303 | 33.59195 | 10730 ft | 335 kts | 335° |
| 2026-04-15 16:07 | 35.37717 | 33.56934 | 11949 ft | 348 kts | 335° |
| 2026-04-15 16:08 | 35.39963 | 33.55786 | 12622 ft | 352 kts | 335° |
| 2026-04-15 16:08 | 35.42231 | 33.54625 | 13309 ft | 356 kts | 336° |
| 2026-04-15 16:08 | 35.44538 | 33.53442 | 13902 ft | 361 kts | 336° |
| 2026-04-15 16:08 | 35.46868 | 33.52248 | 14493 ft | 365 kts | 336° |
| 2026-04-15 16:09 | 35.49226 | 33.51038 | 15083 ft | 368 kts | 336° |
| 2026-04-15 16:09 | 35.51596 | 33.49820 | 15650 ft | 372 kts | 335° |
| 2026-04-15 16:09 | 35.53996 | 33.48587 | 16222 ft | 375 kts | 335° |
| 2026-04-15 16:09 | 35.56416 | 33.47340 | 16798 ft | 378 kts | 335° |
| 2026-04-15 16:10 | 35.58855 | 33.46080 | 17381 ft | 382 kts | 335° |
| 2026-04-15 16:10 | 35.61310 | 33.44810 | 17969 ft | 385 kts | 335° |
| 2026-04-15 16:10 | 35.63789 | 33.43530 | 18515 ft | 388 kts | 335° |
| 2026-04-15 16:10 | 35.66291 | 33.42238 | 19028 ft | 391 kts | 335° |
| 2026-04-15 16:11 | 35.68806 | 33.40940 | 19545 ft | 394 kts | 335° |
| 2026-04-15 16:11 | 35.71353 | 33.39625 | 20069 ft | 398 kts | 335° |
| 2026-04-15 16:11 | 35.73910 | 33.38302 | 20592 ft | 401 kts | 335° |
| 2026-04-15 16:11 | 35.76495 | 33.36963 | 21082 ft | 404 kts | 335° |
| 2026-04-15 16:12 | 35.79064 | 33.35634 | 21539 ft | 407 kts | 335° |
| 2026-04-15 16:12 | 35.81714 | 33.34258 | 22025 ft | 410 kts | 335° |
| 2026-04-15 16:12 | 35.84311 | 33.32910 | 22468 ft | 413 kts | 335° |
| 2026-04-15 16:12 | 35.86973 | 33.31530 | 22937 ft | 416 kts | 335° |
| 2026-04-15 16:13 | 35.89643 | 33.30146 | 23377 ft | 419 kts | 335° |
| 2026-04-15 16:13 | 35.92331 | 33.28725 | 23793 ft | 421 kts | 332° |
| 2026-04-15 16:13 | 35.94872 | 33.26927 | 24147 ft | 422 kts | 324° |
| 2026-04-15 16:13 | 35.97307 | 33.24893 | 24525 ft | 424 kts | 324° |
| 2026-04-15 16:14 | 35.99767 | 33.22846 | 24910 ft | 426 kts | 324° |
| 2026-04-15 16:14 | 36.02230 | 33.20798 | 25288 ft | 427 kts | 324° |
| 2026-04-15 16:14 | 36.04700 | 33.18744 | 25679 ft | 429 kts | 324° |
| 2026-04-15 16:14 | 36.07183 | 33.16680 | 26054 ft | 431 kts | 323° |
| 2026-04-15 16:15 | 36.09673 | 33.14609 | 26449 ft | 433 kts | 323° |
| 2026-04-15 16:15 | 36.12178 | 33.12519 | 26819 ft | 435 kts | 323° |
| 2026-04-15 16:15 | 36.14701 | 33.10411 | 27216 ft | 437 kts | 323° |
| 2026-04-15 16:15 | 36.17193 | 33.08328 | 27591 ft | 439 kts | 323° |
| 2026-04-15 16:16 | 36.19731 | 33.06207 | 27956 ft | 441 kts | 323° |
| 2026-04-15 16:16 | 36.22285 | 33.04077 | 28315 ft | 443 kts | 323° |
| 2026-04-15 16:16 | 36.24846 | 33.01937 | 28666 ft | 445 kts | 323° |